Montmelo, Spain
Current Conditions -  °F | °C
As of 12:30 PM on Sunday 21 Dec 2014 (Local Time) from LELL Reporting Station
Clear Clear  
Wind Chill: 54°   Ceiling: Unl
Heat Index: 54°   Visibility: 6mi
Dew Point: 43°   Wind: 2mph
Humidity: 67%   Direction: NA
Pressure: 30.45"   Gusts: NA
Location:  41.55°N, 2.24°E
Report Text: LELL 211130Z VRB02KT CAVOK 12/06 Q1031
Loading
Personal Weather Stations






























Interactive Weather Map New forecast layout! Learn more

10-Day Weather Forecast

Advertisements
Track Severe Weather on mobile